createdAt,value
2022-11-23T00:01:39.473Z,97451.78
2022-11-23T00:04:09.380Z,97399.38
2022-11-23T00:06:37.974Z,97372.63
2022-11-23T00:09:06.588Z,97341.69
2022-11-23T00:11:36.342Z,97314.50
2022-11-23T00:14:04.953Z,97284.47
2022-11-23T00:16:34.480Z,97269.41
2022-11-23T00:19:03.624Z,97246.06
2022-11-23T00:21:33.804Z,97217.06
2022-11-23T00:24:02.448Z,97183.81
2022-11-23T00:26:30.993Z,97162.34
2022-11-23T00:28:59.631Z,97154.78
2022-11-23T00:31:28.541Z,97144.88
2022-11-23T00:33:58.897Z,97162.50
2022-11-23T00:36:28.049Z,97164.84
2022-11-23T00:38:57.827Z,97173.09
2022-11-23T00:41:28.077Z,97154.97
2022-11-23T00:43:56.359Z,97148.44
2022-11-23T00:46:25.822Z,97134.84
2022-11-23T00:48:55.297Z,97174.28
2022-11-23T00:51:27.104Z,97175.25
2022-11-23T00:53:55.279Z,97176.47
2022-11-23T00:56:25.441Z,97169.28
2022-11-23T00:58:55.103Z,97162.50
2022-11-23T01:01:25.404Z,97173.94
2022-11-23T01:03:55.925Z,97197.09
2022-11-23T01:06:27.894Z,97223.59
2022-11-23T01:08:58.380Z,97234.53
2022-11-23T01:11:28.896Z,97246.00
2022-11-23T01:13:57.222Z,97235.72
2022-11-23T01:16:28.762Z,97236.22
2022-11-23T01:18:57.788Z,97261.25
2022-11-23T01:21:29.484Z,97267.59
2022-11-23T01:23:58.351Z,97285.22
2022-11-23T01:26:26.948Z,97291.28
2022-11-23T01:28:58.528Z,97292.19
2022-11-23T01:31:27.631Z,97294.09
2022-11-23T01:33:56.844Z,97303.69
2022-11-23T01:36:28.055Z,97272.13
2022-11-23T01:38:56.733Z,97266.97
2022-11-23T01:41:26.884Z,97257.25
2022-11-23T01:43:55.604Z,97268.84
2022-11-23T01:46:23.891Z,97259.59
2022-11-23T01:48:56.765Z,97255.06
2022-11-23T01:51:30.587Z,97237.47
2022-11-23T01:54:03.710Z,97297.44
2022-11-23T01:56:36.680Z,97312.34
2022-11-23T01:59:10.846Z,97331.16
2022-11-23T02:01:39.098Z,97330.78
2022-11-23T02:04:10.137Z,97336.16
2022-11-23T02:06:42.237Z,97335.19
2022-11-23T02:09:10.351Z,97337.19
2022-11-23T02:11:38.959Z,97342.41
2022-11-23T02:14:07.076Z,97341.91
2022-11-23T02:16:35.139Z,97349.13
2022-11-23T02:19:03.170Z,97335.19
2022-11-23T02:21:31.295Z,97345.09
2022-11-23T02:24:07.272Z,97349.13
2022-11-23T02:26:39.894Z,97348.63
2022-11-23T02:29:12.991Z,97358.03
2022-11-23T02:31:41.238Z,97361.09
2022-11-23T02:34:09.393Z,97355.03
2022-11-23T02:36:42.040Z,97376.19
2022-11-23T02:39:12.996Z,97376.53
2022-11-23T02:41:45.102Z,97382.41
2022-11-23T02:44:26.560Z,97376.03
2022-11-23T02:46:55.500Z,97376.16
2022-11-23T02:49:23.738Z,97377.22
2022-11-23T02:51:52.739Z,97379.41
2022-11-23T02:54:21.375Z,97379.59
2022-11-23T02:56:51.114Z,97375.84
2022-11-23T02:59:20.041Z,97382.03
2022-11-23T03:01:48.843Z,97393.69
2022-11-23T03:04:16.927Z,97402.44
2022-11-23T03:06:46.216Z,97402.75
2022-11-23T03:09:14.650Z,97398.38
2022-11-23T03:11:43.241Z,97394.34
2022-11-23T03:14:12.761Z,97401.09
2022-11-23T03:16:50.493Z,97410.16
2022-11-23T03:19:20.046Z,97421.94
2022-11-23T03:21:49.578Z,97422.94
2022-11-23T03:24:17.864Z,97418.91
2022-11-23T03:26:47.492Z,97427.78
2022-11-23T03:29:25.664Z,97428.94
2022-11-23T03:31:55.691Z,97426.94
2022-11-23T03:34:24.453Z,97434.31
2022-11-23T03:36:53.229Z,97423.84
2022-11-23T03:39:21.994Z,97427.84
2022-11-23T03:42:28.195Z,97434.97
2022-11-23T03:44:58.951Z,97429.88
2022-11-23T03:47:27.176Z,97437.69
2022-11-23T03:49:55.396Z,97449.69
2022-11-23T03:52:23.459Z,97451.59
2022-11-23T03:54:51.607Z,97448.50
2022-11-23T03:57:19.796Z,97437.94
2022-11-23T03:59:50.133Z,97450.72
2022-11-23T04:02:20.073Z,97455.09
2022-11-23T04:04:59.451Z,97463.78
2022-11-23T04:07:50.651Z,97464.81
2022-11-23T04:10:20.525Z,97478.78
2022-11-23T04:13:14.905Z,97474.03
2022-11-23T04:15:42.916Z,97480.06
2022-11-23T04:18:12.754Z,97492.84
2022-11-23T04:20:41.068Z,97490.84
2022-11-23T04:23:13.109Z,97474.84
2022-11-23T04:25:42.116Z,97510.41
2022-11-23T04:28:10.838Z,97536.56
2022-11-23T04:30:39.380Z,97572.38
2022-11-23T04:33:14.068Z,97602.22
2022-11-23T04:35:43.525Z,97626.00
2022-11-23T04:38:14.163Z,97642.03
2022-11-23T04:41:30.161Z,97673.72
2022-11-23T04:43:59.807Z,97698.50
2022-11-23T04:46:28.790Z,97697.59
2022-11-23T04:49:01.326Z,97699.50
2022-11-23T04:51:30.009Z,97712.41
2022-11-23T04:53:58.552Z,97713.38
2022-11-23T04:56:29.700Z,97726.75
2022-11-23T04:58:58.865Z,97720.22
2022-11-23T05:01:27.388Z,97727.06
2022-11-23T05:04:18.074Z,97735.56
2022-11-23T05:06:48.555Z,97743.38
2022-11-23T05:09:17.283Z,97774.00
2022-11-23T05:12:01.909Z,97785.34
2022-11-23T05:14:32.161Z,97806.94
2022-11-23T05:17:00.652Z,97839.16
2022-11-23T05:19:30.968Z,97847.34
2022-11-23T05:21:59.984Z,97859.50
2022-11-23T05:24:29.331Z,97884.78
2022-11-23T05:27:11.574Z,97889.16
2022-11-23T05:29:42.072Z,97909.66
2022-11-23T05:32:10.497Z,97930.53
2022-11-23T05:34:41.326Z,97927.66
2022-11-23T05:37:11.956Z,97952.91
2022-11-23T05:39:50.162Z,97961.38
2022-11-23T05:42:19.776Z,97971.84
2022-11-23T05:44:52.198Z,97946.00
2022-11-23T05:47:26.125Z,97925.94
2022-11-23T05:49:56.016Z,97913.66
2022-11-23T05:52:28.359Z,97917.34
2022-11-23T05:54:57.141Z,97916.00
2022-11-23T05:57:34.582Z,97905.84
2022-11-23T06:00:12.443Z,97885.31
2022-11-23T06:03:00.855Z,97846.31
2022-11-23T06:05:32.354Z,97838.72
2022-11-23T06:08:01.036Z,97833.84
2022-11-23T06:10:29.652Z,97827.69
2022-11-23T06:13:04.021Z,97835.91
2022-11-23T06:15:33.287Z,97840.28
2022-11-23T06:18:02.352Z,97855.25
2022-11-23T06:20:40.957Z,97858.78
2022-11-23T06:23:09.197Z,97843.81
2022-11-23T06:25:38.739Z,97848.13
2022-11-23T06:28:13.205Z,97854.84
2022-11-23T06:30:45.203Z,97864.50
2022-11-23T06:33:14.710Z,97888.16
2022-11-23T06:36:17.459Z,97891.34
2022-11-23T06:38:50.077Z,97885.31
2022-11-23T06:41:25.973Z,97871.97
2022-11-23T06:43:57.806Z,97869.75
2022-11-23T06:46:36.701Z,97860.38
2022-11-23T06:49:04.786Z,97857.44
2022-11-23T06:51:34.442Z,97850.06
2022-11-23T06:54:02.830Z,97847.78
2022-11-23T06:56:32.641Z,97849.09
2022-11-23T06:59:01.070Z,97871.69
2022-11-23T07:01:29.312Z,97893.63
2022-11-23T07:04:03.295Z,97926.78
2022-11-23T07:06:40.968Z,97949.38
2022-11-23T07:09:16.199Z,97948.13
2022-11-23T07:11:51.823Z,97940.63
2022-11-23T07:14:20.085Z,97946.19
2022-11-23T07:16:51.259Z,97949.13
2022-11-23T07:19:20.254Z,97945.75
2022-11-23T07:21:50.646Z,97949.50
2022-11-23T07:24:18.892Z,97913.97
2022-11-23T07:26:47.118Z,97889.97
2022-11-23T07:29:15.958Z,97854.75
2022-11-23T07:31:44.186Z,97842.44
2022-11-23T07:34:12.622Z,97835.34
2022-11-23T07:36:40.850Z,97832.53
2022-11-23T07:39:10.781Z,97808.75
2022-11-23T07:41:38.985Z,97792.72
2022-11-23T07:44:14.979Z,97765.34
2022-11-23T07:46:46.050Z,97732.13
2022-11-23T07:49:14.208Z,97691.13
2022-11-23T07:51:42.509Z,97657.81
2022-11-23T07:54:12.257Z,97581.53
2022-11-23T07:56:40.414Z,97524.84
2022-11-23T07:59:08.647Z,97485.06
2022-11-23T08:01:36.755Z,97458.66
2022-11-23T08:04:05.096Z,97408.25
2022-11-23T08:06:33.378Z,97388.78
2022-11-23T08:09:01.920Z,97417.34
2022-11-23T08:11:31.493Z,97407.06
2022-11-23T08:14:00.164Z,97399.56
2022-11-23T08:16:28.459Z,97489.84
2022-11-23T08:18:56.779Z,97515.38
2022-11-23T08:21:25.257Z,97521.22
2022-11-23T08:23:53.531Z,97521.88
2022-11-23T08:26:21.833Z,97519.94
2022-11-23T08:28:51.611Z,97530.16
2022-11-23T08:31:19.907Z,97511.81
2022-11-23T08:33:47.990Z,97528.03
2022-11-23T08:36:16.429Z,97530.72
2022-11-23T08:38:44.663Z,97532.06
2022-11-23T08:41:12.961Z,97524.22
2022-11-23T08:43:41.501Z,97513.75
2022-11-23T08:46:11.563Z,97508.03
2022-11-23T08:48:39.835Z,97502.63
2022-11-23T08:51:10.158Z,97489.94
2022-11-23T08:53:39.152Z,97474.47
2022-11-23T08:56:09.097Z,97457.97
2022-11-23T08:58:38.089Z,97451.94
2022-11-23T09:01:09.780Z,97461.16
2022-11-23T09:03:39.811Z,97485.72
2022-11-23T09:06:08.705Z,97493.63
2022-11-23T09:08:37.416Z,97500.34
2022-11-23T09:11:07.849Z,97539.41
2022-11-23T09:13:37.169Z,97550.84
2022-11-23T09:16:07.411Z,97553.38
2022-11-23T09:18:36.799Z,97560.94
2022-11-23T09:21:07.138Z,97582.84
2022-11-23T09:23:35.513Z,97585.19
2022-11-23T09:26:05.694Z,97601.03
2022-11-23T09:28:34.688Z,97582.16
2022-11-23T09:31:05.319Z,97568.34
2022-11-23T09:33:33.586Z,97564.84
2022-11-23T09:36:03.257Z,97569.72
2022-11-23T09:38:55.243Z,97562.28
2022-11-23T09:41:41.253Z,97556.59
2022-11-23T09:44:19.869Z,97568.66
2022-11-23T09:47:15.212Z,97551.34
2022-11-23T09:49:54.068Z,97540.44
2022-11-23T09:52:25.828Z,97533.16
2022-11-23T09:55:00.063Z,97533.69
2022-11-23T09:57:32.060Z,97532.84
2022-11-23T10:00:04.162Z,97523.59
2022-11-23T10:02:37.279Z,97541.91
2022-11-23T10:05:06.647Z,97528.63
2022-11-23T10:07:48.503Z,97524.78
2022-11-23T10:10:36.023Z,97519.88
2022-11-23T10:13:14.595Z,97532.19
2022-11-23T10:15:54.466Z,97531.16
2022-11-23T10:18:31.784Z,97526.78
2022-11-23T10:21:07.649Z,97557.25
2022-11-23T10:23:55.087Z,97549.00
2022-11-23T10:26:30.426Z,97561.66
2022-11-23T10:29:04.182Z,97562.81
2022-11-23T10:31:32.747Z,97554.56
2022-11-23T10:34:09.283Z,97552.53
2022-11-23T10:36:37.984Z,97544.13
2022-11-23T10:39:17.730Z,97538.75
2022-11-23T10:41:47.925Z,97529.50
2022-11-23T10:44:32.068Z,97557.25
2022-11-23T10:47:01.117Z,97549.00
2022-11-23T10:49:31.131Z,97541.09
2022-11-23T10:52:04.139Z,97542.97
2022-11-23T10:54:42.360Z,97540.41
2022-11-23T10:57:31.404Z,97538.03
2022-11-23T11:00:01.518Z,97538.72
2022-11-23T11:02:30.856Z,97549.84
2022-11-23T11:05:40.258Z,97534.66
2022-11-23T11:08:15.797Z,97538.06
2022-11-23T11:10:50.143Z,97521.88
2022-11-23T11:13:30.006Z,97541.41
2022-11-23T11:16:00.307Z,97545.47
2022-11-23T11:18:30.954Z,97555.53
2022-11-23T11:21:02.809Z,97554.53
2022-11-23T11:23:32.545Z,97580.13
2022-11-23T11:26:07.432Z,97560.06
2022-11-23T11:28:44.421Z,97536.75
2022-11-23T11:31:45.165Z,97536.63
2022-11-23T11:34:21.386Z,97520.78
2022-11-23T11:36:55.588Z,97550.47
2022-11-23T11:39:30.042Z,97555.84
2022-11-23T11:42:01.783Z,97576.69
2022-11-23T11:44:37.507Z,97568.81
2022-11-23T11:47:15.416Z,97573.22
2022-11-23T11:49:49.956Z,97573.25
2022-11-23T11:52:22.309Z,97572.56
2022-11-23T11:54:56.885Z,97550.53
2022-11-23T11:57:29.483Z,97555.56
2022-11-23T12:00:06.762Z,97544.94
2022-11-23T12:02:41.305Z,97546.97
2022-11-23T12:05:19.061Z,97558.75
2022-11-23T12:07:54.852Z,97582.84
2022-11-23T12:10:45.072Z,97572.75
2022-11-23T12:13:37.779Z,97610.78
2022-11-23T12:16:41.006Z,97619.03
2022-11-23T12:19:20.828Z,97616.84
2022-11-23T12:22:26.151Z,97630.31
2022-11-23T12:29:43.127Z,97681.81
2022-11-23T12:33:01.057Z,97773.78
2022-11-23T12:36:34.256Z,97794.44
2022-11-23T12:39:15.704Z,97787.94
2022-11-23T12:41:53.678Z,97783.19
2022-11-23T12:45:02.232Z,97778.78
2022-11-23T12:47:49.955Z,97798.59
2022-11-23T12:50:31.827Z,97790.47
2022-11-23T12:53:09.709Z,97795.88
2022-11-23T12:55:48.245Z,97791.91
2022-11-23T12:58:24.612Z,97785.44
2022-11-23T13:00:56.445Z,97780.63
2022-11-23T13:03:57.560Z,97802.94
2022-11-23T13:07:27.438Z,97800.16
2022-11-23T13:10:24.063Z,97823.97
2022-11-23T13:13:12.460Z,97811.84
2022-11-23T13:16:01.511Z,97814.88
2022-11-23T13:18:45.386Z,97832.66
2022-11-23T13:21:23.481Z,97835.41
2022-11-23T13:23:55.359Z,97837.06
2022-11-23T13:26:25.987Z,97840.47
2022-11-23T13:28:58.452Z,97840.41
2022-11-23T13:31:30.443Z,97839.09
2022-11-23T13:34:00.963Z,97830.28
2022-11-23T13:37:10.409Z,97824.91
2022-11-23T13:40:08.142Z,97834.06
2022-11-23T13:42:37.020Z,97831.16
2022-11-23T13:45:36.884Z,97810.41
2022-11-23T13:48:54.897Z,97830.19
2022-11-23T13:51:11.096Z,97819.16
2022-11-23T13:53:42.371Z,97833.25
2022-11-23T13:56:23.954Z,97840.75
2022-11-23T13:58:53.820Z,97846.94
2022-11-23T14:02:01.141Z,97841.19
2022-11-23T14:04:30.699Z,97829.25
2022-11-23T14:07:03.774Z,97831.91
2022-11-23T14:09:37.351Z,97832.53
2022-11-23T14:12:14.328Z,97826.41
2022-11-23T14:14:57.580Z,97828.06
2022-11-23T14:17:51.912Z,97843.56
2022-11-23T14:20:42.428Z,97844.47
2022-11-23T14:23:48.974Z,97856.97
2022-11-23T14:26:31.873Z,97851.22
2022-11-23T14:29:32.415Z,97856.31
2022-11-23T14:32:17.135Z,97851.75
2022-11-23T14:34:56.818Z,97826.56
2022-11-23T14:37:34.075Z,97838.41
2022-11-23T14:40:14.265Z,97830.03
2022-11-23T14:42:46.808Z,97846.34
2022-11-23T14:45:16.772Z,97835.50
2022-11-23T14:47:44.881Z,97849.03
2022-11-23T14:50:25.553Z,97843.06
2022-11-23T14:52:55.106Z,97849.56
2022-11-23T14:55:26.166Z,97836.44
2022-11-23T14:57:58.379Z,97847.38
2022-11-23T15:00:32.012Z,97833.69
2022-11-23T15:03:27.196Z,97828.69
2022-11-23T15:06:12.840Z,97819.00
2022-11-23T15:08:49.746Z,97831.09
2022-11-23T15:11:22.337Z,97854.72
2022-11-23T15:13:52.523Z,97858.44
2022-11-23T15:16:22.416Z,97834.91
2022-11-23T15:18:51.996Z,97854.94
2022-11-23T15:21:27.540Z,97848.16
2022-11-23T15:23:58.321Z,97867.88
2022-11-23T15:26:47.296Z,97877.84
2022-11-23T15:29:34.604Z,97867.06
2022-11-23T15:32:29.263Z,97858.19
2022-11-23T15:34:55.592Z,97862.38
2022-11-23T15:37:27.170Z,97857.63
2022-11-23T15:39:57.116Z,97847.47
2022-11-23T15:42:27.295Z,97820.50
2022-11-23T15:47:43.731Z,97723.44
2022-11-23T15:50:15.145Z,97664.59
2022-11-23T15:52:51.309Z,97626.28
2022-11-23T15:54:53.525Z,97795.59
2022-11-23T15:55:23.354Z,97570.28
2022-11-23T15:58:09.640Z,97508.28
2022-11-23T16:00:39.448Z,97463.63
2022-11-23T16:03:32.077Z,97462.88
2022-11-23T16:06:31.127Z,97435.38
2022-11-23T16:14:11.278Z,97408.09
2022-11-23T16:17:03.887Z,97359.66
2022-11-23T16:20:13.356Z,97371.94
2022-11-23T16:22:50.204Z,97367.91
2022-11-23T16:25:26.012Z,97340.56
2022-11-23T16:27:59.281Z,97356.22
2022-11-23T16:30:37.217Z,97364.31
2022-11-23T16:33:07.317Z,97373.63
2022-11-23T16:35:35.619Z,97404.59
2022-11-23T16:38:03.875Z,97405.72
2022-11-23T16:40:32.403Z,97427.03
2022-11-23T16:43:00.868Z,97446.50
2022-11-23T16:45:32.235Z,97457.97
2022-11-23T16:48:02.169Z,97457.44
2022-11-23T16:50:31.769Z,97467.56
2022-11-23T16:53:03.453Z,97488.38
2022-11-23T16:55:31.877Z,97501.28
2022-11-23T16:58:00.054Z,97528.78
2022-11-23T17:00:28.946Z,97551.94
2022-11-23T17:03:01.634Z,97578.63
2022-11-23T17:05:29.808Z,97574.22
2022-11-23T17:07:58.246Z,97580.03
2022-11-23T17:10:26.799Z,97603.91
2022-11-23T17:13:03.748Z,97618.72
2022-11-23T17:15:38.737Z,97634.31
2022-11-23T17:23:03.526Z,97578.00
2022-11-23T17:25:31.464Z,97587.97
2022-11-23T17:28:01.271Z,97636.06
2022-11-23T17:30:29.825Z,97704.31
2022-11-23T17:32:57.623Z,97729.09
2022-11-23T17:35:25.858Z,97744.91
2022-11-23T17:37:53.860Z,97752.19
2022-11-23T17:40:24.571Z,97782.94
2022-11-23T17:42:52.616Z,97796.28
2022-11-23T17:45:20.764Z,97808.50
2022-11-23T17:47:48.942Z,97817.47
2022-11-23T17:50:19.479Z,97815.56
2022-11-23T17:52:47.906Z,97811.34
2022-11-23T17:55:16.774Z,97819.31
2022-11-23T17:57:45.955Z,97813.06
2022-11-23T18:00:17.981Z,97823.97
2022-11-23T18:02:46.080Z,97840.09
2022-11-23T18:05:17.972Z,97852.66
2022-11-23T18:07:49.423Z,97843.69
2022-11-23T18:10:17.633Z,97863.63
2022-11-23T18:12:46.890Z,97870.38
2022-11-23T18:15:14.774Z,97890.28
2022-11-23T18:17:42.921Z,97884.22
2022-11-23T18:20:11.683Z,97897.38
2022-11-23T18:22:39.614Z,97900.44
2022-11-23T18:25:08.005Z,97909.06
2022-11-23T18:27:35.901Z,97929.84
2022-11-23T18:30:10.616Z,97950.31
2022-11-23T18:32:38.991Z,97961.03
2022-11-23T18:35:09.354Z,97975.59
2022-11-23T18:37:38.197Z,97979.41
2022-11-23T18:40:07.525Z,97977.88
2022-11-23T18:42:35.520Z,97984.66
2022-11-23T18:45:05.189Z,97979.84
2022-11-23T18:47:33.202Z,97992.53
2022-11-23T18:50:06.153Z,98010.66
2022-11-23T18:52:36.015Z,98032.25
2022-11-23T18:55:04.556Z,98038.03
2022-11-23T18:57:37.946Z,98050.75
2022-11-23T19:00:10.160Z,98041.41
2022-11-23T19:02:38.861Z,98043.41
2022-11-23T19:05:07.772Z,98055.25
2022-11-23T19:07:35.861Z,98073.63
2022-11-23T19:10:03.893Z,98068.84
2022-11-23T19:12:31.828Z,98051.75
2022-11-23T19:15:00.196Z,98043.25
2022-11-23T19:17:29.742Z,98027.31
2022-11-23T19:19:58.026Z,98017.56
2022-11-23T19:22:29.455Z,98019.38
2022-11-23T19:24:57.594Z,98021.78
2022-11-23T19:27:25.737Z,98010.94
2022-11-23T19:29:53.922Z,98009.38
2022-11-23T19:32:22.262Z,98007.38
2022-11-23T19:34:51.830Z,98025.88
2022-11-23T19:37:19.915Z,98009.06
2022-11-23T19:39:48.043Z,98018.13
2022-11-23T19:42:16.172Z,98018.13
2022-11-23T19:44:44.544Z,97993.69
2022-11-23T19:47:17.505Z,97969.41
2022-11-23T19:49:48.120Z,97973.50
2022-11-23T19:52:18.168Z,97973.50
2022-11-23T19:54:47.237Z,97987.47
2022-11-23T19:57:15.611Z,97981.56
2022-11-23T19:59:43.726Z,97980.97
2022-11-23T20:02:23.302Z,97977.72
2022-11-23T20:04:51.945Z,97989.47
2022-11-23T20:07:23.763Z,97988.72
2022-11-23T20:09:51.745Z,97971.25
2022-11-23T20:12:20.845Z,97979.00
2022-11-23T20:14:48.971Z,97988.31
2022-11-23T20:17:22.825Z,97988.19
2022-11-23T20:19:58.801Z,97998.19
2022-11-23T20:22:28.263Z,98014.19
2022-11-23T20:24:56.344Z,98030.56
2022-11-23T20:27:24.292Z,98028.28
2022-11-23T20:29:52.195Z,98022.78
2022-11-23T20:32:20.445Z,98041.00
2022-11-23T20:34:48.815Z,98044.25
2022-11-23T20:37:17.056Z,98051.44
2022-11-23T20:39:46.657Z,98062.00
2022-11-23T20:42:15.806Z,98070.50
2022-11-23T20:44:44.523Z,98071.88
2022-11-23T20:47:12.451Z,98082.06
2022-11-23T20:49:40.635Z,98112.41
2022-11-23T20:52:08.797Z,98127.38
2022-11-23T20:54:36.981Z,98131.13
2022-11-23T20:57:06.828Z,98146.25
2022-11-23T20:59:35.198Z,98154.31
2022-11-23T21:02:03.608Z,98164.78
2022-11-23T21:04:31.937Z,98159.44
2022-11-23T21:07:00.294Z,98151.06
2022-11-23T21:09:28.290Z,98166.53
2022-11-23T21:12:13.692Z,98181.34
2022-11-23T21:14:43.223Z,98175.22
2022-11-23T21:17:11.230Z,98182.81
2022-11-23T21:19:40.825Z,98187.19
2022-11-23T21:22:10.993Z,98196.91
2022-11-23T21:24:39.227Z,98213.69
2022-11-23T21:27:09.760Z,98229.94
2022-11-23T21:29:38.093Z,98244.63
2022-11-23T21:32:07.712Z,98243.91
2022-11-23T21:34:36.125Z,98249.03
2022-11-23T21:37:04.506Z,98247.00
2022-11-23T21:39:33.236Z,98256.75
2022-11-23T21:42:01.554Z,98256.75
2022-11-23T21:44:29.837Z,98261.41
2022-11-23T21:46:58.239Z,98270.00
2022-11-23T21:49:28.788Z,98278.44
2022-11-23T21:51:56.937Z,98291.59
2022-11-23T21:54:26.073Z,98294.22
2022-11-23T21:56:54.129Z,98305.78
2022-11-23T21:59:23.239Z,98329.88
2022-11-23T22:01:51.456Z,98354.19
2022-11-23T22:04:19.617Z,98354.00
2022-11-23T22:06:49.161Z,98378.19
2022-11-23T22:09:17.510Z,98390.53
2022-11-23T22:11:47.545Z,98402.09
2022-11-23T22:14:19.405Z,98435.25
2022-11-23T22:16:49.894Z,98450.63
2022-11-23T22:19:19.027Z,98489.97
2022-11-23T22:21:48.709Z,98501.38
2022-11-23T22:24:19.022Z,98514.94
2022-11-23T22:26:47.991Z,98509.06
2022-11-23T22:29:17.068Z,98525.44
2022-11-23T22:31:48.178Z,98522.47
2022-11-23T22:34:17.045Z,98517.97
2022-11-23T22:36:45.183Z,98523.94
2022-11-23T22:39:14.799Z,98536.88
2022-11-23T22:41:43.130Z,98547.59
2022-11-23T22:44:11.592Z,98563.03
2022-11-23T22:46:40.567Z,98570.22
2022-11-23T22:49:08.724Z,98583.41
2022-11-23T22:51:37.072Z,98581.44
2022-11-23T22:54:05.654Z,98583.13
2022-11-23T22:56:35.260Z,98585.56
2022-11-23T22:59:03.510Z,98593.09
2022-11-23T23:01:32.258Z,98587.88
2022-11-23T23:04:03.905Z,98581.63
2022-11-23T23:06:34.950Z,98582.34
2022-11-23T23:09:06.082Z,98562.41
2022-11-23T23:11:37.071Z,98543.91
2022-11-23T23:14:05.495Z,98539.66
2022-11-23T23:16:34.107Z,98536.47
2022-11-23T23:19:03.583Z,98538.69
2022-11-23T23:21:31.838Z,98527.28
2022-11-23T23:24:01.395Z,98497.44
2022-11-23T23:26:30.221Z,98468.56
2022-11-23T23:29:00.976Z,98430.44
2022-11-23T23:31:30.924Z,98403.25
2022-11-23T23:34:00.668Z,98388.84
2022-11-23T23:36:29.905Z,98366.53
2022-11-23T23:38:58.677Z,98359.47
2022-11-23T23:41:26.709Z,98349.13
2022-11-23T23:43:54.662Z,98346.75
2022-11-23T23:46:24.286Z,98338.47
2022-11-23T23:48:52.631Z,98319.34
2022-11-23T23:51:22.786Z,98312.97
2022-11-23T23:54:00.096Z,98318.19
2022-11-23T23:56:53.407Z,98313.78
2022-11-23T23:59:30.063Z,98292.69
